»·PEaware :: AAL3351 KLAX-KASE

AAL3351 :: KLAX-KASE

FLIGHT INFORMATION

Flight Status: Arrived
Operator:
American Airlines
More flights by this operator :: More flights under this callsign
Pilot: Brett L. (10300)
Aircraft: BOEING 737-900
(B739)
More flights by this aircraft type
Origin: KLAX Los Angeles Intl
United States
Destination: KASE Aspen-Pitkin Co/Sardy
United States
More flights between these airports :: More routes between these airports
Route: ORCKA1 LAS J146 DVC LOYYD SKIER DBL
File this flight plan on PilotEdge
Remarks:
Altitude:
(Current/Filed)
37,000ft
Speed:
(Current/Filed)
460kts
Departed: 11-Aug-17 12:06 PM
Arrived: 11-Aug-17 01:36 PM
Distance/Time
Traveled:
639nm/1:29
Distance/Time
To Go:
Arrived

Flight Plot

Page will automatically refresh every two minutes.


Map Options




Map Legend


Flown Route
Filed Route
Departure Airport
Arrival Airport
Navaid (VOR, NDB)
Fix

Horizontal Profiles

Position Reports

Time Latitude Longitude Heading Altitude Ground
Speed
11-Aug-17 11:52 33.941740 -118.400158 80 134ft 0kts
11-Aug-17 11:53 33.941740 -118.400158 80 134ft 0kts
11-Aug-17 11:54 33.941740 -118.400158 80 134ft 0kts
11-Aug-17 11:55 33.941740 -118.400158 80 134ft 0kts
11-Aug-17 11:56 33.941740 -118.400158 80 134ft 0kts
11-Aug-17 11:57 33.941740 -118.400158 80 134ft 0kts
11-Aug-17 11:58 33.941740 -118.400158 80 134ft 0kts
11-Aug-17 11:59 33.941740 -118.400158 80 134ft 0kts
11-Aug-17 12:00 33.941740 -118.400158 80 134ft 0kts
11-Aug-17 12:01 33.941654 -118.400808 80 134ft 2kts
11-Aug-17 12:02 33.940693 -118.400788 172 134ft 0kts
11-Aug-17 12:03 33.939715 -118.400599 161 134ft 8kts
11-Aug-17 12:04 33.939581 -118.392455 82 134ft 28kts
11-Aug-17 12:05 33.940252 -118.385709 82 134ft 19kts
11-Aug-17 12:06 33.940410 -118.384113 82 134ft 0kts
11-Aug-17 12:07 33.940727 -118.380605 118 134ft 0kts
11-Aug-17 12:08 33.939700 -118.381299 260 134ft 9kts
11-Aug-17 12:09 33.935345 -118.425105 261 1859ft 195kts
11-Aug-17 12:10 33.919149 -118.503609 248 4517ft 276kts
11-Aug-17 12:11 33.867608 -118.560306 171 5015ft 277kts
11-Aug-17 12:12 33.832120 -118.489574 74 8089ft 290kts
11-Aug-17 12:13 33.898804 -118.433904 18 11315ft 325kts
11-Aug-17 12:14 33.977817 -118.365987 60 13292ft 381kts
11-Aug-17 12:15 34.033030 -118.255143 55 16192ft 401kts
11-Aug-17 12:16 34.097761 -118.141936 55 18762ft 418kts
11-Aug-17 12:17 34.164459 -118.023651 55 20994ft 434kts
11-Aug-17 12:18 34.227630 -117.911762 55 22852ft 447kts
11-Aug-17 12:19 34.298485 -117.785060 55 24547ft 461kts
11-Aug-17 12:20 34.371962 -117.654944 53 26116ft 476kts
11-Aug-17 12:21 34.450832 -117.523329 53 27481ft 488kts
11-Aug-17 12:22 34.530997 -117.388330 53 28711ft 499kts
11-Aug-17 12:23 34.613078 -117.250250 53 29812ft 510kts
11-Aug-17 12:24 34.696407 -117.109195 53 31113ft 513kts
11-Aug-17 12:25 34.779313 -116.968536 53 32609ft 511kts
11-Aug-17 12:27 34.861844 -116.827294 54 34022ft 511kts
11-Aug-17 12:28 34.947000 -116.689937 47 35505ft 507kts
11-Aug-17 12:29 35.042793 -116.564980 46 36864ft 504kts
11-Aug-17 12:30 35.139403 -116.437532 46 37020ft 516kts
11-Aug-17 12:31 35.236983 -116.308613 46 37022ft 517kts
11-Aug-17 12:32 35.334272 -116.179173 46 37030ft 518kts
11-Aug-17 12:33 35.432007 -116.048699 46 37016ft 518kts
11-Aug-17 12:34 35.529228 -115.918245 46 37019ft 519kts
11-Aug-17 12:35 35.626670 -115.786710 46 37019ft 519kts
11-Aug-17 12:36 35.722827 -115.654575 47 37020ft 519kts
11-Aug-17 12:37 35.818797 -115.521921 47 37023ft 519kts
11-Aug-17 12:38 35.915220 -115.389019 47 37027ft 518kts
11-Aug-17 12:39 36.010765 -115.256134 47 37022ft 518kts
11-Aug-17 12:40 36.095488 -115.111359 65 37001ft 524kts
11-Aug-17 12:41 36.146869 -114.942949 70 36988ft 522kts
11-Aug-17 12:42 36.198021 -114.775347 69 36989ft 520kts
11-Aug-17 12:43 36.249112 -114.607506 69 37004ft 519kts
11-Aug-17 12:44 36.299649 -114.440255 70 37035ft 518kts
11-Aug-17 12:44 36.342187 -114.300610 69 37050ft 517kts
11-Aug-17 12:45 36.392476 -114.133754 70 37058ft 517kts
11-Aug-17 12:46 36.442477 -113.966499 70 37066ft 519kts
11-Aug-17 12:47 36.493115 -113.796025 70 37093ft 525kts
11-Aug-17 12:48 36.543576 -113.625944 70 37119ft 525kts
11-Aug-17 12:49 36.593562 -113.455071 70 37144ft 524kts
11-Aug-17 12:50 36.643069 -113.284790 70 37151ft 523kts
11-Aug-17 12:51 36.692120 -113.114574 71 37163ft 522kts
11-Aug-17 12:52 36.740972 -112.943928 70 37194ft 521kts
11-Aug-17 12:53 36.790024 -112.774272 70 37225ft 520kts
11-Aug-17 12:54 36.838281 -112.604485 71 37262ft 519kts
11-Aug-17 12:55 36.886196 -112.434132 71 37327ft 519kts
11-Aug-17 12:56 36.933733 -112.264254 71 37335ft 519kts
11-Aug-17 12:57 36.981197 -112.093302 71 37289ft 520kts
11-Aug-17 12:58 37.028464 -111.922284 71 37271ft 526kts
11-Aug-17 12:59 37.076521 -111.749059 71 37247ft 526kts
11-Aug-17 13:00 37.124224 -111.575489 71 37227ft 526kts
11-Aug-17 13:01 37.171375 -111.402227 71 37221ft 526kts
11-Aug-17 13:02 37.218033 -111.228805 71 37228ft 525kts
11-Aug-17 13:03 37.264509 -111.054736 72 37237ft 524kts
11-Aug-17 13:04 37.310364 -110.881293 72 37245ft 524kts
11-Aug-17 13:05 37.356559 -110.707323 71 37244ft 524kts
11-Aug-17 13:06 37.402379 -110.533621 72 37281ft 524kts
11-Aug-17 13:07 37.447845 -110.359506 72 37314ft 525kts
11-Aug-17 13:08 37.493215 -110.184412 72 37347ft 526kts
11-Aug-17 13:09 37.538245 -110.009389 72 37380ft 526kts
11-Aug-17 13:10 37.583250 -109.833222 72 37411ft 528kts
11-Aug-17 13:11 37.627880 -109.657286 72 37434ft 527kts
11-Aug-17 13:12 37.672199 -109.481335 72 37447ft 527kts
11-Aug-17 13:13 37.716461 -109.304629 72 37439ft 527kts
11-Aug-17 13:14 37.760379 -109.128360 72 37425ft 527kts
11-Aug-17 13:15 37.807405 -108.953471 61 37410ft 526kts
11-Aug-17 13:16 37.905989 -108.820260 36 37410ft 519kts
11-Aug-17 13:17 38.015685 -108.701293 37 37415ft 521kts
11-Aug-17 13:18 38.125809 -108.579806 36 37432ft 523kts
11-Aug-17 13:19 38.235271 -108.458101 37 37431ft 523kts
11-Aug-17 13:20 38.344347 -108.335981 37 37427ft 523kts
11-Aug-17 13:21 38.453772 -108.212873 37 37409ft 524kts
11-Aug-17 13:22 38.562250 -108.090294 37 37366ft 518kts
11-Aug-17 13:23 38.669938 -107.967936 37 35313ft 519kts
11-Aug-17 13:24 38.778539 -107.844291 36 31889ft 523kts
11-Aug-17 13:25 38.886157 -107.721176 37 28867ft 511kts
11-Aug-17 13:26 38.989389 -107.602851 38 26347ft 488kts
11-Aug-17 13:27 39.088638 -107.488135 39 23849ft 465kts
11-Aug-17 13:28 39.167257 -107.362654 68 21420ft 450kts
11-Aug-17 13:29 39.194416 -107.212808 73 19054ft 405kts
11-Aug-17 13:30 39.278383 -107.137173 9 16398ft 381kts
11-Aug-17 13:31 39.369419 -107.143030 339 15982ft 292kts
11-Aug-17 13:32 39.442929 -107.151406 34 15128ft 285kts
11-Aug-17 13:33 39.475590 -107.058880 69 13936ft 275kts
11-Aug-17 13:34 39.444784 -106.981801 147 13787ft 253kts
11-Aug-17 13:35 39.382853 -106.945105 162 12103ft 254kts
11-Aug-17 13:36 39.319954 -106.915600 158 9971ft 223kts
11-Aug-17 13:37 39.270283 -106.891360 162 8829ft 161kts
11-Aug-17 13:38 39.230467 -106.872325 162 7839ft 148kts
11-Aug-17 13:39 39.220278 -106.866644 76 7828ft 4kts

Navigation Log

Ident Type
Flight plan parsing failed, navigation log unavailable